createdAt,value
2022-08-09T00:00:00.478Z,98715.84
2022-08-09T00:02:31.541Z,98715.66
2022-08-09T00:05:02.993Z,98717.97
2022-08-09T00:07:45.374Z,98725.66
2022-08-09T00:10:17.776Z,98710.75
2022-08-09T00:12:52.622Z,98710.31
2022-08-09T00:15:26.598Z,98714.63
2022-08-09T00:18:11.845Z,98722.97
2022-08-09T00:20:41.439Z,98716.88
2022-08-09T00:23:57.235Z,98718.38
2022-08-09T00:26:05.069Z,98715.34
2022-08-09T00:28:32.204Z,98712.94
2022-08-09T00:31:01.722Z,98726.25
2022-08-09T00:33:51.049Z,98726.06
2022-08-09T00:36:18.698Z,98719.13
2022-08-09T00:38:45.693Z,98733.75
2022-08-09T00:44:08.241Z,98732.22
2022-08-09T00:44:09.894Z,98723.78
2022-08-09T00:46:55.855Z,98711.53
2022-08-09T00:49:25.011Z,98719.44
2022-08-09T00:51:57.192Z,98719.63
2022-08-09T00:54:35.224Z,98714.47
2022-08-09T00:57:08.765Z,98725.03
2022-08-09T00:59:40.948Z,98724.81
2022-08-09T01:02:09.610Z,98713.19
2022-08-09T01:04:59.264Z,98722.28
2022-08-09T01:07:59.984Z,98724.97
2022-08-09T01:10:51.978Z,98724.31
2022-08-09T01:13:31.021Z,98716.22
2022-08-09T01:16:12.928Z,98719.31
2022-08-09T01:18:47.601Z,98717.81
2022-08-09T01:21:51.171Z,98715.50
2022-08-09T01:24:36.342Z,98725.88
2022-08-09T01:27:20.043Z,98723.16
2022-08-09T01:30:00.625Z,98732.31
2022-08-09T01:32:45.495Z,98734.38
2022-08-09T01:35:37.779Z,98728.97
2022-08-09T01:38:14.906Z,98728.56
2022-08-09T01:40:52.774Z,98727.28
2022-08-09T01:43:50.023Z,98734.75
2022-08-09T01:47:44.785Z,98733.47
2022-08-09T01:50:12.630Z,98733.25
2022-08-09T01:52:43.403Z,98721.63
2022-08-09T01:55:12.414Z,98727.84
2022-08-09T01:57:46.119Z,98726.00
2022-08-09T02:00:34.467Z,98730.94
2022-08-09T02:03:05.210Z,98724.72
2022-08-09T02:05:38.215Z,98729.72
2022-08-09T02:08:39.589Z,98734.97
2022-08-09T02:11:17.046Z,98735.63
2022-08-09T02:13:55.423Z,98734.63
2022-08-09T02:16:59.220Z,98736.34
2022-08-09T02:19:23.086Z,98733.06
2022-08-09T02:21:55.607Z,98735.03
2022-08-09T02:24:26.938Z,98722.97
2022-08-09T02:26:59.493Z,98731.13
2022-08-09T02:29:32.632Z,98731.38
2022-08-09T02:32:02.045Z,98723.09
2022-08-09T02:34:41.785Z,98720.22
2022-08-09T02:37:31.741Z,98714.44
2022-08-09T02:40:05.268Z,98722.53
2022-08-09T02:42:43.165Z,98717.56
2022-08-09T02:45:15.289Z,98724.63
2022-08-09T02:47:58.036Z,98721.94
2022-08-09T02:50:33.422Z,98719.00
2022-08-09T02:53:05.123Z,98717.34
2022-08-09T02:55:39.415Z,98719.00
2022-08-09T02:58:32.254Z,98719.81
2022-08-09T03:01:05.976Z,98733.91
2022-08-09T03:04:12.388Z,98728.13
2022-08-09T03:06:25.085Z,98726.66
2022-08-09T03:08:55.535Z,98727.72
2022-08-09T03:12:04.241Z,98723.94
2022-08-09T03:14:12.106Z,98720.66
2022-08-09T03:16:42.007Z,98723.34
2022-08-09T03:19:14.545Z,98723.56
2022-08-09T03:22:03.337Z,98724.81
2022-08-09T03:24:42.779Z,98719.88
2022-08-09T03:27:21.691Z,98725.25
2022-08-09T03:30:01.048Z,98721.13
2022-08-09T03:32:31.202Z,98708.69
2022-08-09T03:35:00.129Z,98723.19
2022-08-09T03:37:56.567Z,98717.38
2022-08-09T03:40:18.178Z,98707.41
2022-08-09T03:42:45.848Z,98710.56
2022-08-09T03:48:37.492Z,98715.69
2022-08-09T03:51:43.789Z,98721.88
2022-08-09T03:54:06.333Z,98716.44
2022-08-09T03:56:41.166Z,98721.78
2022-08-09T03:59:13.576Z,98723.41
2022-08-09T04:01:44.462Z,98722.94
2022-08-09T04:04:14.519Z,98717.50
2022-08-09T04:06:48.671Z,98721.56
2022-08-09T04:09:42.146Z,98712.97
2022-08-09T04:12:30.052Z,98714.34
2022-08-09T04:15:01.961Z,98719.91
2022-08-09T04:17:38.463Z,98726.06
2022-08-09T04:20:07.817Z,98724.59
2022-08-09T04:22:34.812Z,98730.38
2022-08-09T04:25:08.613Z,98727.44
2022-08-09T04:27:41.592Z,98726.41
2022-08-09T04:30:16.522Z,98733.22
2022-08-09T04:32:46.864Z,98739.00
2022-08-09T04:35:15.323Z,98736.69
2022-08-09T04:37:46.463Z,98735.19
2022-08-09T04:40:19.677Z,98738.44
2022-08-09T04:43:01.311Z,98738.31
2022-08-09T04:45:30.455Z,98734.63
2022-08-09T04:48:05.274Z,98745.91
2022-08-09T04:50:38.130Z,98747.41
2022-08-09T04:53:13.488Z,98747.53
2022-08-09T04:55:58.001Z,98759.50
2022-08-09T04:58:31.624Z,98749.28
2022-08-09T05:00:59.372Z,98745.53
2022-08-09T05:03:40.498Z,98740.88
2022-08-09T05:06:11.838Z,98747.28
2022-08-09T05:08:48.803Z,98752.53
2022-08-09T05:11:15.431Z,98763.16
2022-08-09T05:13:43.009Z,98747.38
2022-08-09T05:16:10.399Z,98746.69
2022-08-09T05:18:55.335Z,98748.75
2022-08-09T05:21:29.699Z,98750.34
2022-08-09T05:24:00.930Z,98762.25
2022-08-09T05:26:41.078Z,98756.28
2022-08-09T05:29:21.692Z,98750.34
2022-08-09T05:31:57.013Z,98763.94
2022-08-09T05:34:30.887Z,98763.34
2022-08-09T05:37:06.019Z,98767.41
2022-08-09T05:39:43.761Z,98774.47
2022-08-09T05:42:20.579Z,98772.78
2022-08-09T05:44:54.076Z,98768.75
2022-08-09T05:50:26.786Z,98777.50
2022-08-09T05:52:26.007Z,98783.41
2022-08-09T05:54:57.347Z,98780.22
2022-08-09T05:57:56.013Z,98778.47
2022-08-09T06:00:17.327Z,98783.28
2022-08-09T06:02:46.640Z,98778.38
2022-08-09T06:05:13.647Z,98784.31
2022-08-09T06:07:40.243Z,98779.94
2022-08-09T06:10:15.726Z,98784.00
2022-08-09T06:12:50.456Z,98773.88
2022-08-09T06:15:29.822Z,98779.91
2022-08-09T06:17:58.540Z,98778.91
2022-08-09T06:20:25.542Z,98788.56
2022-08-09T06:22:52.187Z,98777.50
2022-08-09T06:25:19.173Z,98784.38
2022-08-09T06:27:51.453Z,98782.56
2022-08-09T06:30:18.636Z,98783.03
2022-08-09T06:32:59.482Z,98776.47
2022-08-09T06:35:55.990Z,98791.66
2022-08-09T06:38:16.052Z,98781.97
2022-08-09T06:40:43.252Z,98787.94
2022-08-09T06:43:10.372Z,98783.88
2022-08-09T06:46:06.626Z,98781.19
2022-08-09T06:48:30.115Z,98787.72
2022-08-09T06:50:57.327Z,98791.88
2022-08-09T06:53:24.970Z,98790.75
2022-08-09T06:55:52.574Z,98790.75
2022-08-09T07:00:49.164Z,98783.81
2022-08-09T07:01:07.860Z,98795.00
2022-08-09T07:03:39.777Z,98799.81
2022-08-09T07:06:19.878Z,98802.28
2022-08-09T07:08:46.947Z,98799.81
2022-08-09T07:11:17.641Z,98809.47
2022-08-09T07:14:04.161Z,98802.06
2022-08-09T07:16:40.990Z,98806.28
2022-08-09T07:19:14.987Z,98799.03
2022-08-09T07:21:56.046Z,98802.69
2022-08-09T07:24:32.247Z,98801.19
2022-08-09T07:27:24.057Z,98810.72
2022-08-09T07:29:53.847Z,98807.34
2022-08-09T07:32:32.246Z,98803.25
2022-08-09T07:35:01.090Z,98795.28
2022-08-09T07:37:29.558Z,98802.47
2022-08-09T07:39:56.320Z,98807.16
2022-08-09T07:42:32.590Z,98808.53
2022-08-09T07:45:06.387Z,98810.47
2022-08-09T07:50:40.772Z,98817.56
2022-08-09T07:53:36.523Z,98818.69
2022-08-09T07:56:06.861Z,98821.91
2022-08-09T07:58:33.624Z,98825.25
2022-08-09T08:01:06.611Z,98812.50
2022-08-09T08:03:38.410Z,98825.03
2022-08-09T08:06:09.306Z,98826.13
2022-08-09T08:09:02.414Z,98823.47
2022-08-09T08:12:23.940Z,98838.88
2022-08-09T08:14:14.183Z,98835.63
2022-08-09T08:16:43.271Z,98822.22
2022-08-09T08:19:31.092Z,98832.78
2022-08-09T08:21:58.079Z,98833.59
2022-08-09T08:24:27.061Z,98844.09
2022-08-09T08:27:02.053Z,98840.09
2022-08-09T08:29:39.595Z,98836.03
2022-08-09T08:32:24.486Z,98827.81
2022-08-09T08:34:58.840Z,98835.69
2022-08-09T08:37:41.261Z,98840.97
2022-08-09T08:40:14.804Z,98853.22
2022-08-09T08:42:43.650Z,98842.63
2022-08-09T08:45:16.745Z,98850.78
2022-08-09T08:47:45.191Z,98851.78
2022-08-09T08:50:18.196Z,98851.09
2022-08-09T08:52:52.500Z,98844.56
2022-08-09T08:55:23.437Z,98855.16
2022-08-09T08:57:56.454Z,98848.81
2022-08-09T09:00:27.863Z,98847.19
2022-08-09T09:03:08.198Z,98850.47
2022-08-09T09:06:00.149Z,98845.06
2022-08-09T09:08:30.963Z,98848.41
2022-08-09T09:11:01.877Z,98838.81
2022-08-09T09:13:41.540Z,98837.88
2022-08-09T09:16:13.982Z,98847.69
2022-08-09T09:18:47.283Z,98834.78
2022-08-09T09:21:16.432Z,98830.50
2022-08-09T09:23:57.454Z,98834.47
2022-08-09T09:26:26.087Z,98830.22
2022-08-09T09:29:04.128Z,98834.78
2022-08-09T09:32:04.578Z,98831.06
2022-08-09T09:34:25.264Z,98834.44
2022-08-09T09:36:57.728Z,98835.59
2022-08-09T09:39:50.275Z,98836.44
2022-08-09T09:42:27.877Z,98838.53
2022-08-09T09:45:03.376Z,98834.28
2022-08-09T09:47:32.516Z,98836.19
2022-08-09T09:51:38.160Z,98828.09
2022-08-09T09:54:19.081Z,98825.94
2022-08-09T09:56:53.209Z,98822.72
2022-08-09T09:59:36.234Z,98814.09
2022-08-09T10:02:02.786Z,98830.41
2022-08-09T10:04:31.534Z,98824.97
2022-08-09T10:06:58.844Z,98816.00
2022-08-09T10:09:54.575Z,98823.41
2022-08-09T10:12:36.483Z,98817.31
2022-08-09T10:15:17.608Z,98818.78
2022-08-09T10:18:11.968Z,98823.56
2022-08-09T10:20:45.061Z,98819.09
2022-08-09T10:23:21.859Z,98815.06
2022-08-09T10:26:07.030Z,98819.91
2022-08-09T10:28:38.430Z,98819.53
2022-08-09T10:34:08.781Z,98813.78
2022-08-09T10:36:42.185Z,98810.53
2022-08-09T10:39:15.620Z,98812.72
2022-08-09T10:41:45.012Z,98813.53
2022-08-09T10:44:11.644Z,98814.53
2022-08-09T10:46:55.299Z,98814.97
2022-08-09T10:49:51.806Z,98816.53
2022-08-09T10:52:56.430Z,98803.63
2022-08-09T10:55:49.364Z,98809.69
2022-08-09T10:58:37.182Z,98800.91
2022-08-09T11:03:06.925Z,98806.59
2022-08-09T11:04:29.893Z,98807.63
2022-08-09T11:07:00.486Z,98807.69
2022-08-09T11:09:41.223Z,98800.75
2022-08-09T11:12:26.484Z,98801.34
2022-08-09T11:15:24.094Z,98804.31
2022-08-09T11:17:56.892Z,98801.22
2022-08-09T11:20:49.746Z,98801.16
2022-08-09T11:23:16.794Z,98803.19
2022-08-09T11:25:50.894Z,98808.84
2022-08-09T11:28:54.116Z,98804.25
2022-08-09T11:31:49.201Z,98790.56
2022-08-09T11:34:27.433Z,98798.38
2022-08-09T11:36:56.733Z,98787.75
2022-08-09T11:39:24.473Z,98798.50
2022-08-09T11:41:54.590Z,98802.56
2022-08-09T11:44:43.916Z,98802.72
2022-08-09T11:47:10.997Z,98800.84
2022-08-09T11:53:59.855Z,98781.03
2022-08-09T11:55:52.614Z,98781.03
2022-08-09T11:58:30.205Z,98779.38
2022-08-09T12:01:09.000Z,98779.31
2022-08-09T12:03:56.832Z,98776.97
2022-08-09T12:06:32.780Z,98780.97
2022-08-09T12:09:15.320Z,98772.06
2022-08-09T12:12:02.243Z,98779.25
2022-08-09T12:14:36.781Z,98780.97
2022-08-09T12:17:28.164Z,98784.84
2022-08-09T12:19:59.784Z,98776.84
2022-08-09T12:22:27.726Z,98778.44
2022-08-09T12:25:36.668Z,98780.41
2022-08-09T12:29:11.904Z,98783.94
2022-08-09T12:31:58.917Z,98772.28
2022-08-09T12:34:41.781Z,98773.31
2022-08-09T12:37:24.102Z,98766.94
2022-08-09T12:40:09.653Z,98766.72
2022-08-09T12:42:37.214Z,98761.69
2022-08-09T12:45:32.328Z,98765.28
2022-08-09T12:47:52.615Z,98765.28
2022-08-09T12:50:23.315Z,98766.59
2022-08-09T12:53:09.350Z,98768.53
2022-08-09T12:56:15.995Z,98769.25
2022-08-09T12:58:28.048Z,98767.88
2022-08-09T13:00:55.569Z,98770.28
2022-08-09T13:03:53.944Z,98766.59
2022-08-09T13:06:34.909Z,98762.88
2022-08-09T13:09:18.351Z,98766.88
2022-08-09T13:11:47.926Z,98763.31
2022-08-09T13:14:42.803Z,98762.88
2022-08-09T13:17:08.631Z,98758.19
2022-08-09T13:20:10.278Z,98768.63
2022-08-09T13:22:35.898Z,98768.03
2022-08-09T13:25:05.442Z,98768.91
2022-08-09T13:27:40.237Z,98759.16
2022-08-09T13:30:50.593Z,98759.91
2022-08-09T13:33:11.605Z,98753.34
2022-08-09T13:36:41.839Z,98748.97
2022-08-09T13:38:55.719Z,98755.13
2022-08-09T13:41:45.908Z,98751.34
2022-08-09T13:43:58.732Z,98754.25
2022-08-09T13:47:13.717Z,98748.88
2022-08-09T13:49:18.308Z,98745.84
2022-08-09T13:53:42.979Z,98744.25
2022-08-09T13:56:11.935Z,98753.66
2022-08-09T13:58:38.942Z,98748.72
2022-08-09T14:01:06.033Z,98753.09
2022-08-09T14:04:02.931Z,98748.22
2022-08-09T14:06:29.505Z,98756.13
2022-08-09T14:08:58.449Z,98741.88
2022-08-09T14:11:25.181Z,98748.28
2022-08-09T14:14:22.280Z,98753.72
2022-08-09T14:16:38.680Z,98748.72
2022-08-09T14:19:07.408Z,98752.28
2022-08-09T14:21:33.980Z,98756.47
2022-08-09T14:24:01.192Z,98753.47
2022-08-09T14:26:33.721Z,98754.94
2022-08-09T14:29:03.577Z,98751.59
2022-08-09T14:31:49.769Z,98757.66
2022-08-09T14:34:31.778Z,98749.22
2022-08-09T14:37:06.014Z,98750.16
2022-08-09T14:39:40.506Z,98743.13
2022-08-09T14:42:30.877Z,98751.16
2022-08-09T14:45:01.012Z,98740.03
2022-08-09T14:47:46.705Z,98744.78
2022-08-09T14:50:17.454Z,98743.34
2022-08-09T14:52:47.784Z,98736.69
2022-08-09T14:55:20.320Z,98740.28
2022-08-09T14:57:47.971Z,98739.59
2022-08-09T15:00:16.291Z,98738.16
2022-08-09T15:02:42.908Z,98733.50
2022-08-09T15:05:17.035Z,98727.75
2022-08-09T15:07:45.386Z,98728.41
2022-08-09T15:10:21.876Z,98731.03
2022-08-09T15:12:52.453Z,98727.53
2022-08-09T15:15:19.297Z,98735.94
2022-08-09T15:17:51.724Z,98729.25
2022-08-09T15:21:57.686Z,98734.31
2022-08-09T15:24:02.152Z,98732.78
2022-08-09T15:25:55.608Z,98725.19
2022-08-09T15:28:27.967Z,98725.31
2022-08-09T15:31:07.437Z,98729.47
2022-08-09T15:34:15.511Z,98729.81
2022-08-09T15:36:28.769Z,98728.72
2022-08-09T15:38:57.669Z,98733.41
2022-08-09T15:41:32.210Z,98736.63
2022-08-09T15:44:03.690Z,98722.06
2022-08-09T15:46:34.198Z,98736.03
2022-08-09T15:49:20.481Z,98737.72
2022-08-09T15:54:49.456Z,98737.47
2022-08-09T15:57:34.046Z,98741.63
2022-08-09T16:00:11.015Z,98750.97
2022-08-09T16:02:48.027Z,98747.78
2022-08-09T16:05:21.391Z,98740.41
2022-08-09T16:07:50.644Z,98737.38
2022-08-09T16:10:54.823Z,98745.63
2022-08-09T16:13:18.523Z,98738.44
2022-08-09T16:16:10.664Z,98734.72
2022-08-09T16:18:32.511Z,98738.53
2022-08-09T16:20:59.455Z,98744.09
2022-08-09T16:23:26.959Z,98741.03
2022-08-09T16:26:02.488Z,98742.13
2022-08-09T16:28:29.638Z,98742.13
2022-08-09T16:30:58.729Z,98739.09
2022-08-09T16:33:26.673Z,98749.25
2022-08-09T16:35:59.953Z,98749.03
2022-08-09T16:38:29.647Z,98756.78
2022-08-09T16:41:03.930Z,98750.47
2022-08-09T16:43:31.065Z,98749.22
2022-08-09T16:45:57.693Z,98742.41
2022-08-09T16:48:38.669Z,98751.00
2022-08-09T16:51:14.419Z,98749.66
2022-08-09T16:54:02.322Z,98742.84
2022-08-09T16:56:30.518Z,98747.78
2022-08-09T16:58:59.174Z,98758.47
2022-08-09T17:01:28.886Z,98745.63
2022-08-09T17:04:01.067Z,98751.41
2022-08-09T17:06:31.561Z,98761.00
2022-08-09T17:09:17.718Z,98760.19
2022-08-09T17:11:53.292Z,98766.50
2022-08-09T17:14:25.553Z,98770.34
2022-08-09T17:17:01.612Z,98762.94
2022-08-09T17:20:06.030Z,98758.84
2022-08-09T17:22:35.671Z,98766.22
2022-08-09T17:25:10.317Z,98753.88
2022-08-09T17:27:49.435Z,98760.44
2022-08-09T17:30:26.038Z,98762.63
2022-08-09T17:32:53.262Z,98759.88
2022-08-09T17:35:19.959Z,98773.00
2022-08-09T17:38:02.687Z,98768.63
2022-08-09T17:40:35.129Z,98772.38
2022-08-09T17:43:32.148Z,98765.25
2022-08-09T17:46:04.356Z,98766.56
2022-08-09T17:48:38.654Z,98769.53
2022-08-09T17:51:06.650Z,98770.59
2022-08-09T17:55:48.583Z,98769.44
2022-08-09T17:58:17.374Z,98771.03
2022-08-09T18:00:47.978Z,98767.97
2022-08-09T18:03:14.910Z,98770.09
2022-08-09T18:05:44.725Z,98786.13
2022-08-09T18:08:13.353Z,98781.44
2022-08-09T18:10:46.024Z,98776.50
2022-08-09T18:13:39.116Z,98800.13
2022-08-09T18:16:09.384Z,98788.59
2022-08-09T18:18:43.204Z,98788.75
2022-08-09T18:21:19.308Z,98794.97
2022-08-09T18:24:10.036Z,98801.97
2022-08-09T18:26:36.119Z,98799.69
2022-08-09T18:30:40.805Z,98802.09
2022-08-09T18:31:55.601Z,98809.38
2022-08-09T18:34:24.118Z,98810.91
2022-08-09T18:36:53.391Z,98815.31
2022-08-09T18:39:22.475Z,98816.06
2022-08-09T18:41:52.821Z,98816.81
2022-08-09T18:44:27.476Z,98812.97
2022-08-09T18:47:07.947Z,98820.06
2022-08-09T18:49:41.619Z,98818.34
2022-08-09T18:52:15.899Z,98833.31
2022-08-09T18:54:52.889Z,98829.69
2022-08-09T18:57:22.366Z,98833.41
2022-08-09T18:59:55.592Z,98827.31
2022-08-09T19:02:32.006Z,98831.38
2022-08-09T19:05:04.258Z,98831.91
2022-08-09T19:07:59.009Z,98828.59
2022-08-09T19:10:29.365Z,98839.75
2022-08-09T19:13:20.807Z,98834.22
2022-08-09T19:15:55.500Z,98836.88
2022-08-09T19:18:32.874Z,98841.50
2022-08-09T19:21:02.544Z,98840.69
2022-08-09T19:24:32.593Z,98842.84
2022-08-09T19:26:16.320Z,98832.78
2022-08-09T19:28:48.899Z,98830.28
2022-08-09T19:31:16.660Z,98837.06
2022-08-09T19:33:43.933Z,98829.97
2022-08-09T19:36:13.418Z,98829.13
2022-08-09T19:38:40.454Z,98830.47
2022-08-09T19:41:07.324Z,98835.91
2022-08-09T19:44:02.007Z,98830.47
2022-08-09T19:46:33.980Z,98838.13
2022-08-09T19:50:08.840Z,98832.69
2022-08-09T19:51:57.174Z,98838.72
2022-08-09T19:56:36.904Z,98834.34
2022-08-09T19:59:39.259Z,98831.03
2022-08-09T20:02:06.301Z,98830.47
2022-08-09T20:04:47.622Z,98822.06
2022-08-09T20:07:21.212Z,98833.53
2022-08-09T20:09:50.488Z,98834.09
2022-08-09T20:12:27.019Z,98832.19
2022-08-09T20:14:57.802Z,98834.59
2022-08-09T20:17:26.481Z,98835.41
2022-08-09T20:19:58.047Z,98843.06
2022-08-09T20:22:32.110Z,98838.53
2022-08-09T20:25:02.432Z,98840.25
2022-08-09T20:27:31.591Z,98840.81
2022-08-09T20:30:01.040Z,98844.63
2022-08-09T20:32:33.579Z,98833.97
2022-08-09T20:35:01.540Z,98830.94
2022-08-09T20:38:19.437Z,98834.72
2022-08-09T20:40:24.837Z,98839.63
2022-08-09T20:43:00.400Z,98845.88
2022-08-09T20:45:57.603Z,98837.41
2022-08-09T20:48:30.590Z,98837.06
2022-08-09T20:50:58.169Z,98836.25
2022-08-09T20:53:36.460Z,98838.09
2022-08-09T20:56:06.795Z,98836.59
2022-08-09T20:58:36.086Z,98844.19
2022-08-09T21:01:33.463Z,98837.63
2022-08-09T21:05:48.210Z,98829.91
2022-08-09T21:06:42.617Z,98833.47
2022-08-09T21:09:13.463Z,98839.19
2022-08-09T21:14:30.910Z,98839.41
2022-08-09T21:17:00.055Z,98840.00
2022-08-09T21:20:17.856Z,98834.75
2022-08-09T21:22:35.932Z,98847.75
2022-08-09T21:25:20.924Z,98836.81
2022-08-09T21:27:51.772Z,98845.22
2022-08-09T21:30:19.554Z,98843.81
2022-08-09T21:32:49.620Z,98845.47
2022-08-09T21:35:16.953Z,98844.31
2022-08-09T21:37:56.880Z,98844.81
2022-08-09T21:40:30.873Z,98847.53
2022-08-09T21:43:04.321Z,98846.72
2022-08-09T21:45:38.908Z,98852.97
2022-08-09T21:48:07.754Z,98854.38
2022-08-09T21:50:39.018Z,98845.31
2022-08-09T21:53:19.987Z,98848.19
2022-08-09T21:57:58.970Z,98844.66
2022-08-09T22:00:32.528Z,98841.94
2022-08-09T22:03:07.547Z,98841.59
2022-08-09T22:05:54.723Z,98829.75
2022-08-09T22:08:24.673Z,98831.91
2022-08-09T22:11:49.318Z,98836.75
2022-08-09T22:13:42.228Z,98828.03
2022-08-09T22:16:26.179Z,98831.31
2022-08-09T22:19:00.836Z,98829.69
2022-08-09T22:21:50.102Z,98822.53
2022-08-09T22:24:21.139Z,98834.47
2022-08-09T22:26:52.439Z,98831.50
2022-08-09T22:29:28.415Z,98842.13
2022-08-09T22:32:01.581Z,98832.81
2022-08-09T22:34:37.333Z,98836.59
2022-08-09T22:37:06.662Z,98832.75
2022-08-09T22:39:57.569Z,98836.03
2022-08-09T22:42:23.828Z,98833.31
2022-08-09T22:48:05.812Z,98830.25
2022-08-09T22:48:12.786Z,98823.41
2022-08-09T22:50:32.281Z,98839.41
2022-08-09T22:53:07.254Z,98831.25
2022-08-09T22:56:31.317Z,98828.53
2022-08-09T22:58:32.794Z,98820.38
2022-08-09T23:01:08.800Z,98817.38
2022-08-09T23:04:03.554Z,98823.91
2022-08-09T23:06:49.623Z,98818.88
2022-08-09T23:09:16.977Z,98821.03
2022-08-09T23:11:46.340Z,98814.97
2022-08-09T23:14:17.345Z,98820.91
2022-08-09T23:16:45.098Z,98821.97
2022-08-09T23:19:15.240Z,98820.34
2022-08-09T23:21:48.104Z,98821.06
2022-08-09T23:24:17.787Z,98827.81
2022-08-09T23:26:47.177Z,98820.06
2022-08-09T23:29:17.331Z,98826.16
2022-08-09T23:31:44.268Z,98826.56
2022-08-09T23:34:11.577Z,98825.66
2022-08-09T23:36:38.758Z,98826.19
2022-08-09T23:39:07.883Z,98828.56
2022-08-09T23:41:36.045Z,98829.03
2022-08-09T23:44:05.998Z,98823.75
2022-08-09T23:46:33.080Z,98828.44
2022-08-09T23:49:01.229Z,98832.13
2022-08-09T23:51:29.145Z,98830.25
2022-08-09T23:54:03.509Z,98823.72
2022-08-09T23:58:35.305Z,98828.22
